Sunday, July 5, 2015, 12:21 AM EDT
Back to Local

KPTW, Pottstown Limerick Airport

Location: Royersford, PA, United States Lat: 40.233
Local Time: 12:21 AM EDT ( 4:21 GMT) Lon: -75.55
Time Zone: US/Eastern Elev: 291 ft

Show me the last for .
Show Decoded

2015-07-04 23:54 METAR KPTW 050354Z AUTO 00000KT 4SM BR OVC031 19/18 A3005 RMK AO2 SLP172
                 T01890183 =
2015-07-04 23:33 METAR KPTW 050333Z AUTO 00000KT 3SM BR OVC031 19/19 A3005 RMK AO2 T01890189 =
2015-07-04 23:11 METAR KPTW 050311Z AUTO 00000KT 2SM BR BKN032 OVC046 19/19 A3005 RMK AO2
                 T01890189 =
2015-07-04 22:54 METAR KPTW 050254Z AUTO 00000KT 3SM BR FEW032 OVC046 19/19 A3004 RMK AO2 SLP169
                 60000 T01890189 53012 =
2015-07-04 21:54 METAR KPTW 050154Z AUTO 00000KT 6SM BR BKN033 OVC043 19/19 A3003 RMK AO2
                 RAB41E50 SLP166 P0000 T01890189 =
2015-07-04 20:54 METAR KPTW 050054Z AUTO 00000KT 8SM OVC034 19/18 A3001 RMK AO2 SLP157 T01890183
                 =
2015-07-04 19:54 METAR KPTW 042354Z AUTO 00000KT 10SM OVC036 19/18 A3001 RMK AO2 RAE33 SLP157
                 P0001 60007 T01890183 10222 20189 53016 =
2015-07-04 19:08 METAR KPTW 042308Z AUTO 03004KT 3SM -RA BR OVC036 19/18 A3000 RMK AO2 P0000
                 T01890183 =
2015-07-04 19:01 METAR KPTW 042301Z AUTO 03003KT 2 1/2SM -RA BR OVC037 19/18 A2999 RMK AO2 P0000
                 T01890183 =
2015-07-04 18:54 METAR KPTW 042254Z AUTO 02004KT 1 3/4SM -RA BR OVC035 19/18 A2999 RMK AO2 RAB07
                 SLP152 P0006 T01890183 =
2015-07-04 18:41 METAR KPTW 042241Z AUTO 02005KT 2SM RA BR FEW025 OVC037 19/18 A2999 RMK AO2
                 RAB07 P0004 T01890183 =
2015-07-04 17:54 METAR KPTW 042154Z AUTO 00000KT 10SM BKN042 OVC050 22/17 A2997 RMK AO2 RAB32E53
                 SLP144 P0000 T02170172 =
2015-07-04 16:54 METAR KPTW 042054Z AUTO 06003KT 10SM OVC043 22/17 A2996 RMK AO2 SLP142 T02220167
                 55003 =
2015-07-04 15:54 METAR KPTW 041954Z AUTO 05006KT 10SM OVC044 22/17 A2995 RMK AO2 SLP139 T02170172
                 =
2015-07-04 14:54 METAR KPTW 041854Z AUTO 07004KT 10SM BKN060 OVC070 21/17 A2996 RMK AO2 SLP141
                 T02110167 =
2015-07-04 13:54 METAR KPTW 041754Z AUTO 07006KT 10SM BKN085 OVC100 21/17 A2997 RMK AO2 RAE1659
                 SLP145 P0000 60006 T02060172 10206 20189 51002 =
2015-07-04 12:54 METAR KPTW 041654Z AUTO 08004KT 10SM -RA BKN075 OVC095 19/17 A2996 RMK AO2
                 SLP142 P0005 T01940172 =
2015-07-04 11:54 METAR KPTW 041554Z AUTO 04006KT 7SM -RA SCT048 OVC065 19/17 A2999 RMK AO2 RAB02
                 SLP151 P0001 T01890167 =
2015-07-04 10:54 METAR KPTW 041454Z AUTO 02006KT 10SM BKN060 BKN075 OVC090 20/17 A2996 RMK AO2
                 RAE22 SLP142 P0000 60000 T02000172 51007 =
2015-07-04 10:15 METAR KPTW 041415Z AUTO 02005KT 10SM -RA FEW008 SCT080 OVC100 21/19 A2996 RMK
                 AO2 P0000 T02060194 =
2015-07-04 09:54 METAR KPTW 041354Z AUTO 02006KT 10SM -RA BKN070 BKN085 OVC110 21/19 A2996 RMK
                 AO2 RAB13 SLP140 P0000 T02060194 =
2015-07-04 08:54 METAR KPTW 041254Z AUTO 03004KT 10SM OVC070 20/19 A2995 RMK AO2 RAB1156E14
                 SLP137 P0000 T02000189 =
2015-07-04 07:54 METAR KPTW 041154Z AUTO 07004KT 10SM OVC070 20/18 A2994 RMK AO2 SLP134 T02000183
                 10206 20194 55001 =
2015-07-04 06:54 METAR KPTW 041054Z AUTO 07005KT 9SM BKN080 BKN100 19/18 A2993 RMK AO2 SLP132
                 T01940183 =
2015-07-04 05:54 METAR KPTW 040954Z AUTO 06004KT 10SM BKN070 BKN085 OVC110 19/18 A2993 RMK AO2
                 SLP131 T01940178 =
2015-07-04 04:54 METAR KPTW 040854Z AUTO 00000KT 10SM OVC070 19/18 A2995 RMK AO2 SLP135 T01940178
                 58007 =
2015-07-04 03:54 METAR KPTW 040754Z AUTO 00000KT 10SM BKN075 OVC090 20/18 A2995 RMK AO2 SLP138
                 T02000178 =
2015-07-04 02:54 METAR KPTW 040654Z AUTO 00000KT 10SM FEW070 BKN085 BKN110 21/18 A2996 RMK AO2
                 SLP140 T02060178 =
2015-07-04 01:54 METAR KPTW 040554Z AUTO 00000KT 10SM FEW095 FEW110 21/17 A2997 RMK AO2 SLP143
                 T02060172 10244 20206 58003 =
2015-07-04 00:54 METAR KPTW 040454Z AUTO 00000KT 10SM SCT075 21/17 A2998 RMK AO2 SLP147 T02110167
                 402610144 =

Support USWX by starting your Amazon purchase here.